createdAt,value
2018-03-31T00:01:12.244Z,32.60
2018-03-31T00:03:39.762Z,30.10
2018-03-31T00:06:07.998Z,30.80
2018-03-31T00:08:35.485Z,30.30
2018-03-31T00:11:03.769Z,28.47
2018-03-31T00:13:32.623Z,33.00
2018-03-31T00:16:00.099Z,29.53
2018-03-31T00:18:28.612Z,31.20
2018-03-31T00:20:56.090Z,26.60
2018-03-31T00:26:24.165Z,29.23
2018-03-31T00:28:51.642Z,29.43
2018-03-31T00:31:29.228Z,29.67
2018-03-31T00:33:56.714Z,32.00
2018-03-31T00:36:24.262Z,30.10
2018-03-31T00:38:51.788Z,32.07
2018-03-31T00:41:19.261Z,34.03
2018-03-31T00:43:46.804Z,31.10
2018-03-31T00:46:14.318Z,27.93
2018-03-31T00:48:42.563Z,29.60
2018-03-31T00:54:10.743Z,27.07
2018-03-31T00:56:38.303Z,27.63
2018-03-31T00:59:27.870Z,30.87
2018-03-31T01:01:55.343Z,29.40
2018-03-31T01:10:28.318Z,28.97
2018-03-31T01:15:57.825Z,28.40
2018-03-31T01:18:26.069Z,30.23
2018-03-31T01:23:53.938Z,27.20
2018-03-31T01:26:28.167Z,28.47
2018-03-31T01:28:55.681Z,23.67
2018-03-31T01:31:23.165Z,26.20
2018-03-31T01:33:50.638Z,23.97
2018-03-31T01:36:18.162Z,26.03
2018-03-31T01:38:45.634Z,24.93
2018-03-31T01:41:28.293Z,24.47
2018-03-31T01:43:56.531Z,24.33
2018-03-31T01:46:24.092Z,27.60
2018-03-31T01:48:51.604Z,28.20
2018-03-31T01:51:19.827Z,28.70
2018-03-31T01:53:47.300Z,27.20
2018-03-31T01:56:14.893Z,24.43
2018-03-31T01:58:42.980Z,27.00
2018-03-31T02:04:12.165Z,27.97
2018-03-31T02:06:40.406Z,25.20
2018-03-31T02:12:08.228Z,25.83
2018-03-31T02:14:36.492Z,25.37
2018-03-31T02:17:03.953Z,25.53
2018-03-31T02:19:32.237Z,24.00
2018-03-31T02:22:00.485Z,23.63
2018-03-31T02:24:27.962Z,25.00
2018-03-31T02:26:56.230Z,26.10
2018-03-31T02:29:23.731Z,24.77
2018-03-31T02:31:51.203Z,23.33
2018-03-31T02:34:18.705Z,26.83
2018-03-31T02:36:46.963Z,24.00
2018-03-31T02:39:14.476Z,24.13
2018-03-31T02:41:42.005Z,25.33
2018-03-31T02:44:10.318Z,24.40
2018-03-31T02:46:37.789Z,26.50
2018-03-31T02:49:05.301Z,25.20
2018-03-31T02:51:33.554Z,26.43
2018-03-31T02:54:01.800Z,23.83
2018-03-31T02:56:29.302Z,24.40
2018-03-31T02:59:28.804Z,25.53
2018-03-31T03:02:01.201Z,24.40
2018-03-31T03:04:28.677Z,24.33
2018-03-31T03:06:56.184Z,25.70
2018-03-31T03:09:23.713Z,22.60
2018-03-31T03:11:51.187Z,22.30
2018-03-31T03:14:18.654Z,20.67
2018-03-31T03:16:47.066Z,26.37
2018-03-31T03:19:14.544Z,25.43
2018-03-31T03:24:42.833Z,24.07
2018-03-31T03:27:10.297Z,25.37
2018-03-31T03:29:37.766Z,22.80
2018-03-31T03:32:05.272Z,25.50
2018-03-31T03:34:33.520Z,22.87
2018-03-31T03:37:00.990Z,25.60
2018-03-31T03:39:28.511Z,24.73
2018-03-31T03:41:56.017Z,24.00
2018-03-31T03:44:24.321Z,21.97
2018-03-31T03:49:53.203Z,24.47
2018-03-31T03:52:21.454Z,25.97
2018-03-31T03:54:48.916Z,24.23
2018-03-31T03:57:16.447Z,24.53
2018-03-31T03:59:43.920Z,25.33
2018-03-31T04:02:11.395Z,27.70
2018-03-31T04:04:39.694Z,27.00
2018-03-31T04:07:07.160Z,19.57
2018-03-31T04:09:35.152Z,25.00
2018-03-31T04:12:02.669Z,25.30
2018-03-31T04:14:30.131Z,26.53
2018-03-31T04:16:57.605Z,28.23
2018-03-31T04:19:25.253Z,25.57
2018-03-31T04:21:52.716Z,25.63
2018-03-31T04:24:20.189Z,26.37
2018-03-31T04:26:47.812Z,24.70
2018-03-31T04:32:16.042Z,26.00
2018-03-31T04:34:43.513Z,25.80
2018-03-31T04:37:10.985Z,27.20
2018-03-31T04:39:38.512Z,27.50
2018-03-31T04:42:28.166Z,28.90
2018-03-31T04:44:55.673Z,26.20
2018-03-31T04:47:23.204Z,21.40
2018-03-31T04:49:50.665Z,26.20
2018-03-31T04:52:18.166Z,25.97
2018-03-31T04:54:46.409Z,26.67
2018-03-31T04:57:13.962Z,24.53
2018-03-31T04:59:41.493Z,24.27
2018-03-31T05:02:08.966Z,23.33
2018-03-31T05:04:36.443Z,29.00
2018-03-31T05:07:03.964Z,25.73
2018-03-31T05:12:33.144Z,27.40
2018-03-31T05:15:00.623Z,29.57
2018-03-31T05:17:28.131Z,26.80
2018-03-31T05:19:55.640Z,27.23
2018-03-31T05:22:23.163Z,28.50
2018-03-31T05:24:50.680Z,26.10
2018-03-31T05:27:18.150Z,26.40
2018-03-31T05:29:45.714Z,27.30
2018-03-31T05:32:13.267Z,26.83
2018-03-31T05:34:40.748Z,26.97
2018-03-31T05:37:08.208Z,26.10
2018-03-31T05:39:35.732Z,25.40
2018-03-31T05:42:03.297Z,28.60
2018-03-31T05:44:30.793Z,26.60
2018-03-31T05:46:59.113Z,25.87
2018-03-31T05:49:26.586Z,25.33
2018-03-31T05:51:54.079Z,25.40
2018-03-31T06:00:29.424Z,27.20
2018-03-31T06:05:57.870Z,27.70
2018-03-31T06:14:28.769Z,28.20
2018-03-31T06:16:56.280Z,25.63
2018-03-31T06:19:30.357Z,28.00
2018-03-31T06:21:57.861Z,24.93
2018-03-31T06:24:29.467Z,28.90
2018-03-31T06:26:56.943Z,26.87
2018-03-31T06:29:30.693Z,29.00
2018-03-31T06:34:59.185Z,26.87
2018-03-31T06:40:28.505Z,26.60
2018-03-31T06:42:56.799Z,29.57
2018-03-31T06:45:29.025Z,28.20
2018-03-31T06:48:28.117Z,24.60
2018-03-31T07:00:42.366Z,30.43
2018-03-31T07:03:30.453Z,28.47
2018-03-31T07:06:29.043Z,28.30
2018-03-31T07:12:27.949Z,30.57
2018-03-31T07:14:55.439Z,27.97
2018-03-31T07:23:25.276Z,26.80
2018-03-31T07:35:14.689Z,26.20
2018-03-31T07:40:42.554Z,19.50
2018-03-31T07:46:30.813Z,29.63
2018-03-31T07:54:59.958Z,23.97
2018-03-31T08:06:29.800Z,29.13
2018-03-31T08:08:57.268Z,26.37
2018-03-31T08:11:31.037Z,25.17
2018-03-31T08:13:59.283Z,28.87
2018-03-31T08:16:26.761Z,29.50
2018-03-31T08:18:55.784Z,31.60
2018-03-31T08:21:23.262Z,31.37
2018-03-31T08:23:50.775Z,27.40
2018-03-31T08:26:19.067Z,30.87
2018-03-31T08:28:47.300Z,26.07
2018-03-31T08:31:14.781Z,25.40
2018-03-31T08:33:43.057Z,28.57
2018-03-31T08:36:11.357Z,20.20
2018-03-31T08:38:38.873Z,29.77
2018-03-31T08:44:07.448Z,29.13
2018-03-31T08:46:34.926Z,30.23
2018-03-31T08:49:02.408Z,28.70
2018-03-31T08:51:30.670Z,28.73
2018-03-31T08:53:58.915Z,27.50
2018-03-31T08:56:26.437Z,30.50
2018-03-31T08:58:53.995Z,31.00
2018-03-31T09:01:21.473Z,27.30
2018-03-31T09:03:49.056Z,30.27
2018-03-31T09:06:16.584Z,32.07
2018-03-31T09:11:44.466Z,29.20
2018-03-31T09:14:12.539Z,29.50
2018-03-31T09:19:41.622Z,28.97
2018-03-31T09:22:09.900Z,31.80
2018-03-31T09:24:38.141Z,33.57
2018-03-31T09:27:05.858Z,33.60
2018-03-31T09:29:33.337Z,34.13
2018-03-31T09:35:01.642Z,35.20
2018-03-31T09:37:29.131Z,32.80
2018-03-31T09:39:56.602Z,33.40
2018-03-31T09:42:24.869Z,33.50
2018-03-31T09:44:53.115Z,34.83
2018-03-31T09:47:20.630Z,30.10
2018-03-31T09:49:48.105Z,32.20
2018-03-31T09:52:15.620Z,33.53
2018-03-31T09:54:43.868Z,33.77
2018-03-31T09:57:11.383Z,33.20
2018-03-31T09:59:38.870Z,35.60
2018-03-31T10:02:06.396Z,34.73
2018-03-31T10:04:33.878Z,33.67
2018-03-31T10:07:01.395Z,33.73
2018-03-31T10:09:28.944Z,34.43
2018-03-31T10:11:57.196Z,32.20
2018-03-31T10:14:30.777Z,34.37
2018-03-31T10:16:58.258Z,35.90
2018-03-31T10:22:27.942Z,34.80
2018-03-31T10:24:55.408Z,34.23
2018-03-31T10:27:29.905Z,35.93
2018-03-31T10:29:57.392Z,34.70
2018-03-31T10:32:24.874Z,34.80
2018-03-31T10:34:52.416Z,31.57
2018-03-31T10:37:19.903Z,31.60
2018-03-31T10:39:48.169Z,34.00
2018-03-31T10:42:17.190Z,32.67
2018-03-31T10:44:44.672Z,31.73
2018-03-31T10:50:28.061Z,29.70
2018-03-31T10:52:55.541Z,34.20
2018-03-31T10:55:30.350Z,34.00
2018-03-31T11:01:00.510Z,32.63
2018-03-31T11:03:28.845Z,33.60
2018-03-31T11:06:27.586Z,36.03
2018-03-31T11:13:31.061Z,20.67
2018-03-31T11:16:27.411Z,28.83
2018-03-31T11:18:54.931Z,28.33
2018-03-31T11:21:29.084Z,32.63
2018-03-31T11:26:57.603Z,32.70
2018-03-31T11:41:29.316Z,25.70
2018-03-31T11:44:27.538Z,29.60
2018-03-31T11:52:57.576Z,27.80
2018-03-31T11:55:29.179Z,35.27
2018-03-31T11:58:27.434Z,31.37
2018-03-31T12:00:54.958Z,27.07
2018-03-31T12:03:28.533Z,25.87
2018-03-31T12:11:57.014Z,36.30
2018-03-31T12:14:24.599Z,36.67
2018-03-31T12:16:52.080Z,37.03
2018-03-31T12:19:19.704Z,38.20
2018-03-31T12:21:47.188Z,42.97
2018-03-31T12:24:16.180Z,39.67
2018-03-31T12:26:43.702Z,39.87
2018-03-31T12:29:11.181Z,33.53
2018-03-31T12:31:38.733Z,35.97
2018-03-31T12:37:06.521Z,32.77
2018-03-31T12:42:34.574Z,42.00
2018-03-31T12:45:02.057Z,38.80
2018-03-31T12:47:29.537Z,39.60
2018-03-31T12:49:57.105Z,37.23
2018-03-31T12:52:25.358Z,36.10
2018-03-31T12:54:52.841Z,38.87
2018-03-31T12:57:21.857Z,37.20
2018-03-31T12:59:49.333Z,39.10
2018-03-31T13:02:16.822Z,37.23
2018-03-31T13:04:44.376Z,38.90
2018-03-31T13:07:29.165Z,38.10
2018-03-31T13:09:56.694Z,38.03
2018-03-31T13:12:24.170Z,38.37
2018-03-31T13:14:51.667Z,37.10
2018-03-31T13:20:20.427Z,40.50
2018-03-31T13:22:48.621Z,42.90
2018-03-31T13:25:16.875Z,40.27
2018-03-31T13:27:44.387Z,38.27
2018-03-31T13:30:11.862Z,40.70
2018-03-31T13:32:39.327Z,43.67
2018-03-31T13:41:09.079Z,39.57
2018-03-31T13:43:36.548Z,41.20
2018-03-31T13:46:04.017Z,42.37
2018-03-31T13:48:31.521Z,45.67
2018-03-31T13:50:59.013Z,46.10
2018-03-31T13:53:26.490Z,40.47
2018-03-31T13:55:54.010Z,47.00
2018-03-31T13:58:21.492Z,41.20
2018-03-31T14:00:49.478Z,42.13
2018-03-31T14:03:16.997Z,38.70
2018-03-31T14:05:44.722Z,45.50
2018-03-31T14:08:13.569Z,36.47
2018-03-31T14:10:41.080Z,41.70
2018-03-31T14:16:09.549Z,42.70
2018-03-31T14:18:37.790Z,40.03
2018-03-31T14:21:05.275Z,46.67
2018-03-31T14:23:32.786Z,39.53
2018-03-31T14:26:00.253Z,41.97
2018-03-31T14:31:29.115Z,43.93
2018-03-31T14:33:56.861Z,45.07
2018-03-31T14:36:25.150Z,45.07
2018-03-31T14:38:56.287Z,46.50
2018-03-31T14:41:24.734Z,45.80
2018-03-31T14:43:53.316Z,41.90
2018-03-31T14:46:29.933Z,38.30
2018-03-31T14:48:59.525Z,37.23
2018-03-31T14:51:27.146Z,45.37
2018-03-31T14:53:54.667Z,41.80
2018-03-31T14:56:31.288Z,42.97
2018-03-31T14:59:00.452Z,40.30
2018-03-31T15:01:31.976Z,44.40
2018-03-31T15:04:28.144Z,43.53
2018-03-31T15:06:55.615Z,44.67
2018-03-31T15:12:23.932Z,43.80
2018-03-31T15:14:51.400Z,47.50
2018-03-31T15:17:18.877Z,42.73
2018-03-31T15:19:47.154Z,45.80
2018-03-31T15:22:15.434Z,41.67
2018-03-31T15:24:43.716Z,45.93
2018-03-31T15:27:11.957Z,48.10
2018-03-31T15:29:39.454Z,46.90
2018-03-31T15:32:28.528Z,40.37
2018-03-31T15:34:56.131Z,45.23
2018-03-31T15:37:29.816Z,48.80
2018-03-31T15:39:57.298Z,48.63
2018-03-31T15:45:26.726Z,43.17
2018-03-31T15:47:55.788Z,48.33
2018-03-31T15:50:24.119Z,47.70
2018-03-31T15:52:52.473Z,42.17
2018-03-31T15:55:19.930Z,45.20
2018-03-31T15:57:48.171Z,38.47
2018-03-31T16:00:15.679Z,44.43
2018-03-31T16:02:44.034Z,50.10
2018-03-31T16:05:29.143Z,46.63
2018-03-31T16:07:56.708Z,42.10
2018-03-31T16:13:24.188Z,41.70
2018-03-31T16:18:52.512Z,44.67
2018-03-31T16:21:19.980Z,44.13
2018-03-31T16:23:48.087Z,44.93
2018-03-31T16:26:15.804Z,41.00
2018-03-31T16:28:43.285Z,51.80
2018-03-31T16:31:10.829Z,46.63
2018-03-31T16:33:38.553Z,49.77
2018-03-31T16:36:06.027Z,43.60
2018-03-31T16:38:33.507Z,48.43
2018-03-31T16:41:01.016Z,49.47
2018-03-31T16:43:28.505Z,43.40
2018-03-31T16:45:55.968Z,50.37
2018-03-31T16:48:23.611Z,61.70
2018-03-31T16:50:51.082Z,50.93
2018-03-31T16:53:18.589Z,59.40
2018-03-31T16:55:46.852Z,63.07
2018-03-31T16:58:15.198Z,68.60
2018-03-31T17:00:42.678Z,71.50
2018-03-31T17:03:11.697Z,70.73
2018-03-31T17:05:39.941Z,61.87
2018-03-31T17:08:07.422Z,50.10
2018-03-31T17:10:35.831Z,42.93
2018-03-31T17:13:03.306Z,52.27
2018-03-31T17:15:30.787Z,57.20
2018-03-31T17:17:58.324Z,71.87
2018-03-31T17:23:26.436Z,62.60
2018-03-31T17:25:53.932Z,60.50
2018-03-31T17:28:21.409Z,61.43
2018-03-31T17:30:48.999Z,59.10
2018-03-31T17:33:16.582Z,52.00
2018-03-31T17:38:45.926Z,63.67
2018-03-31T17:47:14.978Z,55.83
2018-03-31T17:49:42.444Z,52.60
2018-03-31T17:52:09.936Z,54.67
2018-03-31T17:54:37.472Z,60.00
2018-03-31T17:57:04.951Z,54.00
2018-03-31T17:59:32.435Z,61.13
2018-03-31T18:02:00.734Z,56.97
2018-03-31T18:04:28.209Z,60.07
2018-03-31T18:06:55.686Z,64.40
2018-03-31T18:09:23.208Z,64.10
2018-03-31T18:20:53.569Z,64.37
2018-03-31T18:23:21.818Z,71.70
2018-03-31T18:34:51.844Z,65.43
2018-03-31T18:43:20.954Z,72.10
2018-03-31T18:57:20.956Z,59.90
2018-03-31T19:02:48.758Z,60.83
2018-03-31T19:11:17.961Z,60.93
2018-03-31T19:16:53.419Z,66.80
2018-03-31T19:40:28.089Z,78.57
2018-03-31T19:45:56.090Z,79.70
2018-03-31T19:48:29.641Z,86.13
2018-03-31T19:50:57.173Z,77.30
2018-03-31T19:53:24.667Z,82.90
2018-03-31T19:55:52.150Z,70.07
2018-03-31T19:58:19.670Z,89.53
2018-03-31T20:03:30.428Z,83.70
2018-03-31T20:05:57.983Z,73.17
2018-03-31T20:11:25.438Z,85.90
2018-03-31T20:13:52.927Z,78.93
2018-03-31T20:16:20.406Z,80.47
2018-03-31T20:18:47.914Z,81.97
2018-03-31T20:21:15.397Z,76.93
2018-03-31T20:23:43.050Z,75.63
2018-03-31T20:26:10.575Z,76.57
2018-03-31T20:28:38.068Z,78.37
2018-03-31T20:31:30.103Z,78.67
2018-03-31T20:33:58.074Z,72.37
2018-03-31T20:40:53.854Z,74.23
2018-03-31T20:43:21.334Z,79.40
2018-03-31T20:45:48.801Z,69.80
2018-03-31T20:48:16.311Z,73.20
2018-03-31T20:50:43.791Z,75.63
2018-03-31T20:53:12.070Z,72.13
2018-03-31T20:55:40.402Z,70.90
2018-03-31T20:58:07.922Z,72.63
2018-03-31T21:00:35.396Z,70.20
2018-03-31T21:03:02.853Z,71.60
2018-03-31T21:05:30.410Z,73.17
2018-03-31T21:07:57.875Z,70.53
2018-03-31T21:10:25.341Z,68.27
2018-03-31T21:15:53.457Z,62.57
2018-03-31T21:21:21.901Z,62.23
2018-03-31T21:23:49.376Z,58.57
2018-03-31T21:26:16.835Z,58.53
2018-03-31T21:31:45.281Z,57.50
2018-03-31T21:34:13.528Z,54.17
2018-03-31T21:36:40.997Z,50.90
2018-03-31T21:39:08.519Z,50.33
2018-03-31T21:41:35.993Z,55.60
2018-03-31T21:44:03.469Z,51.37
2018-03-31T21:46:31.000Z,48.53
2018-03-31T21:48:58.460Z,47.17
2018-03-31T21:51:25.939Z,49.00
2018-03-31T21:53:53.449Z,53.00
2018-03-31T21:59:22.132Z,46.57
2018-03-31T22:04:50.342Z,47.10
2018-03-31T22:07:17.904Z,47.87
2018-03-31T22:12:46.062Z,48.13
2018-03-31T22:15:34.014Z,48.93
2018-03-31T22:18:02.294Z,46.03
2018-03-31T22:20:29.767Z,47.03
2018-03-31T22:22:57.373Z,45.53
2018-03-31T22:25:28.681Z,42.93
2018-03-31T22:27:56.154Z,43.83
2018-03-31T22:30:23.629Z,47.13
2018-03-31T22:32:51.149Z,41.00
2018-03-31T22:35:18.607Z,40.63
2018-03-31T22:37:46.077Z,43.00
2018-03-31T22:40:13.573Z,44.17
2018-03-31T22:45:42.699Z,44.80
2018-03-31T22:48:10.932Z,41.90
2018-03-31T22:56:39.512Z,38.20
2018-03-31T22:59:07.001Z,36.80
2018-03-31T23:01:34.497Z,33.47
2018-03-31T23:04:02.840Z,34.90
2018-03-31T23:06:30.328Z,36.53
2018-03-31T23:11:59.413Z,32.60
2018-03-31T23:14:30.073Z,30.07
2018-03-31T23:16:57.554Z,29.80
2018-03-31T23:19:25.061Z,29.07
2018-03-31T23:21:52.533Z,28.40
2018-03-31T23:27:21.709Z,28.00
2018-03-31T23:29:49.195Z,26.13
2018-03-31T23:32:16.690Z,30.07
2018-03-31T23:34:44.965Z,26.67
2018-03-31T23:37:28.893Z,31.13
2018-03-31T23:39:57.171Z,27.13
2018-03-31T23:42:24.637Z,26.00
2018-03-31T23:44:52.861Z,26.53
2018-03-31T23:47:20.425Z,27.47
2018-03-31T23:49:47.901Z,28.20
2018-03-31T23:52:15.378Z,31.80
2018-03-31T23:54:43.667Z,30.47
2018-03-31T23:57:11.919Z,30.30
2018-03-31T23:59:39.428Z,29.63
